createdAt,value
2017-09-21T00:00:46.816Z,17.23
2017-09-21T00:03:13.603Z,16.97
2017-09-21T00:05:40.347Z,16.23
2017-09-21T00:08:07.028Z,19.07
2017-09-21T00:10:33.826Z,16.53
2017-09-21T00:13:00.723Z,18.20
2017-09-21T00:15:27.243Z,15.67
2017-09-21T00:17:53.792Z,17.20
2017-09-21T00:20:20.380Z,19.10
2017-09-21T00:22:46.864Z,16.80
2017-09-21T00:25:13.796Z,17.27
2017-09-21T00:27:41.410Z,17.50
2017-09-21T00:30:07.997Z,17.13
2017-09-21T00:32:34.787Z,18.90
2017-09-21T00:35:01.688Z,20.40
2017-09-21T00:37:28.500Z,18.20
2017-09-21T00:39:55.342Z,17.77
2017-09-21T00:42:22.033Z,19.70
2017-09-21T00:44:48.696Z,18.27
2017-09-21T00:47:15.435Z,20.43
2017-09-21T00:49:42.803Z,20.10
2017-09-21T00:52:09.585Z,19.80
2017-09-21T00:54:36.203Z,20.23
2017-09-21T00:57:02.985Z,20.43
2017-09-21T00:59:29.711Z,21.10
2017-09-21T01:01:56.575Z,22.20
2017-09-21T01:04:23.266Z,21.77
2017-09-21T01:06:49.948Z,20.33
2017-09-21T01:09:16.726Z,22.90
2017-09-21T01:11:43.540Z,21.97
2017-09-21T01:14:10.251Z,23.07
2017-09-21T01:16:37.143Z,22.80
2017-09-21T01:19:03.945Z,22.90
2017-09-21T01:21:30.843Z,23.57
2017-09-21T01:23:58.363Z,24.23
2017-09-21T01:26:26.469Z,23.33
2017-09-21T01:28:53.306Z,25.23
2017-09-21T01:31:20.303Z,26.03
2017-09-21T01:33:47.196Z,25.37
2017-09-21T01:36:13.932Z,25.93
2017-09-21T01:38:40.847Z,27.20
2017-09-21T01:41:07.691Z,27.63
2017-09-21T01:43:34.431Z,28.13
2017-09-21T01:46:01.443Z,27.70
2017-09-21T01:48:33.121Z,28.97
2017-09-21T01:50:59.876Z,30.27
2017-09-21T01:53:26.879Z,28.63
2017-09-21T01:55:53.772Z,28.90
2017-09-21T01:58:20.569Z,29.27
2017-09-21T02:00:47.306Z,28.53
2017-09-21T02:03:13.984Z,29.77
2017-09-21T02:05:40.727Z,28.97
2017-09-21T02:08:08.044Z,29.80
2017-09-21T02:10:34.812Z,29.30
2017-09-21T02:13:01.761Z,30.87
2017-09-21T02:15:28.772Z,30.10
2017-09-21T02:17:55.436Z,30.10
2017-09-21T02:20:22.295Z,28.80
2017-09-21T02:22:49.301Z,31.90
2017-09-21T02:25:16.096Z,30.87
2017-09-21T02:27:43.349Z,32.50
2017-09-21T02:30:10.092Z,29.57
2017-09-21T02:32:36.971Z,31.57
2017-09-21T02:35:03.771Z,31.57
2017-09-21T02:37:30.765Z,32.90
2017-09-21T02:39:58.345Z,33.07
2017-09-21T02:42:25.103Z,32.03
2017-09-21T02:44:51.763Z,32.70
2017-09-21T02:47:19.534Z,31.60
2017-09-21T02:49:46.163Z,32.40
2017-09-21T02:52:13.113Z,32.70
2017-09-21T02:54:39.856Z,31.63
2017-09-21T02:57:06.547Z,31.70
2017-09-21T02:59:33.431Z,33.23
2017-09-21T03:02:00.399Z,31.87
2017-09-21T03:04:27.948Z,32.10
2017-09-21T03:06:54.800Z,33.80
2017-09-21T03:09:21.431Z,33.77
2017-09-21T03:11:48.265Z,31.30
2017-09-21T03:14:15.187Z,32.83
2017-09-21T03:16:41.837Z,33.27
2017-09-21T03:19:08.692Z,31.73
2017-09-21T03:21:35.625Z,36.30
2017-09-21T03:24:02.415Z,33.03
2017-09-21T03:26:29.338Z,33.70
2017-09-21T03:28:56.653Z,33.10
2017-09-21T03:31:23.398Z,34.83
2017-09-21T03:33:50.133Z,34.33
2017-09-21T03:36:16.909Z,35.77
2017-09-21T03:38:43.529Z,35.67
2017-09-21T03:41:10.482Z,33.70
2017-09-21T03:43:37.277Z,34.43
2017-09-21T03:46:04.308Z,33.60
2017-09-21T03:48:30.887Z,35.03
2017-09-21T03:50:57.620Z,38.07
2017-09-21T03:53:25.204Z,38.40
2017-09-21T03:55:52.047Z,33.50
2017-09-21T03:58:18.691Z,37.60
2017-09-21T04:00:45.381Z,36.57
2017-09-21T04:03:12.068Z,38.23
2017-09-21T04:05:38.840Z,40.97
2017-09-21T04:08:05.702Z,37.43
2017-09-21T04:10:32.489Z,38.77
2017-09-21T04:12:59.310Z,39.50
2017-09-21T04:15:26.145Z,37.87
2017-09-21T04:17:52.871Z,40.63
2017-09-21T04:20:19.662Z,37.80
2017-09-21T04:22:46.496Z,37.30
2017-09-21T04:25:13.550Z,39.00
2017-09-21T04:27:40.476Z,38.60
2017-09-21T04:30:07.225Z,39.07
2017-09-21T04:32:34.960Z,40.23
2017-09-21T04:35:01.968Z,38.17
2017-09-21T04:37:29.153Z,38.30
2017-09-21T04:39:56.128Z,39.90
2017-09-21T04:42:22.871Z,40.07
2017-09-21T04:44:49.718Z,40.60
2017-09-21T04:47:16.599Z,39.80
2017-09-21T04:49:43.575Z,38.53
2017-09-21T04:52:10.381Z,39.33
2017-09-21T04:54:37.050Z,40.87
2017-09-21T04:57:03.850Z,44.20
2017-09-21T04:59:30.565Z,40.40
2017-09-21T05:01:58.225Z,42.87
2017-09-21T05:04:25.064Z,40.60
2017-09-21T05:06:51.935Z,43.50
2017-09-21T05:09:18.545Z,43.20
2017-09-21T05:11:45.513Z,42.23
2017-09-21T05:14:24.443Z,42.90
2017-09-21T05:16:51.768Z,42.20
2017-09-21T05:19:18.289Z,40.10
2017-09-21T05:21:44.870Z,40.03
2017-09-21T05:24:11.497Z,38.60
2017-09-21T05:26:38.012Z,39.77
2017-09-21T05:29:04.552Z,40.53
2017-09-21T05:31:31.748Z,41.30
2017-09-21T05:33:58.403Z,41.70
2017-09-21T05:36:25.229Z,38.67
2017-09-21T05:38:51.814Z,37.40
2017-09-21T05:41:19.811Z,38.80
2017-09-21T05:43:46.747Z,40.37
2017-09-21T05:46:13.630Z,38.93
2017-09-21T05:48:40.415Z,40.63
2017-09-21T05:51:07.264Z,39.20
2017-09-21T05:53:33.861Z,41.37
2017-09-21T05:56:00.714Z,36.83
2017-09-21T05:58:27.391Z,38.53
2017-09-21T06:00:54.064Z,40.30
2017-09-21T06:03:20.755Z,37.57
2017-09-21T06:05:47.516Z,39.37
2017-09-21T06:08:14.349Z,42.50
2017-09-21T06:10:41.186Z,41.17
2017-09-21T06:13:08.004Z,41.43
2017-09-21T06:15:35.125Z,41.50
2017-09-21T06:18:02.021Z,38.70
2017-09-21T06:20:28.730Z,38.17
2017-09-21T06:22:56.324Z,40.73
2017-09-21T06:25:23.088Z,41.10
2017-09-21T06:27:49.804Z,40.43
2017-09-21T06:30:16.687Z,37.17
2017-09-21T06:32:43.612Z,39.97
2017-09-21T06:35:11.153Z,40.03
2017-09-21T06:37:37.728Z,40.70
2017-09-21T06:40:04.632Z,38.00
2017-09-21T06:42:32.301Z,38.13
2017-09-21T06:44:58.910Z,37.60
2017-09-21T06:47:25.861Z,38.30
2017-09-21T06:49:53.474Z,38.23
2017-09-21T06:52:20.253Z,32.93
2017-09-21T06:54:47.040Z,34.23
2017-09-21T06:57:13.620Z,33.80
2017-09-21T06:59:40.504Z,34.70
2017-09-21T07:02:07.348Z,35.27
2017-09-21T07:04:34.080Z,35.17
2017-09-21T07:07:00.981Z,32.67
2017-09-21T07:09:27.882Z,32.30
2017-09-21T07:11:54.669Z,34.10
2017-09-21T07:14:21.691Z,34.93
2017-09-21T07:16:48.481Z,32.77
2017-09-21T07:19:15.139Z,32.10
2017-09-21T07:21:42.367Z,33.57
2017-09-21T07:24:09.153Z,33.93
2017-09-21T07:26:36.019Z,32.40
2017-09-21T07:29:03.058Z,32.23
2017-09-21T07:31:29.837Z,33.17
2017-09-21T07:33:56.697Z,31.73
2017-09-21T07:36:23.396Z,34.40
2017-09-21T07:38:50.733Z,32.83
2017-09-21T07:41:17.682Z,32.63
2017-09-21T07:43:44.498Z,33.20
2017-09-21T07:46:11.328Z,33.40
2017-09-21T07:48:38.195Z,31.80
2017-09-21T07:51:05.121Z,32.07
2017-09-21T07:53:31.932Z,31.67
2017-09-21T07:55:58.588Z,30.07
2017-09-21T07:58:25.476Z,32.20
2017-09-21T08:00:52.292Z,30.27
2017-09-21T08:03:19.152Z,32.73
2017-09-21T08:05:45.877Z,31.73
2017-09-21T08:08:12.599Z,32.17
2017-09-21T08:10:39.368Z,31.97
2017-09-21T08:13:06.128Z,33.23
2017-09-21T08:15:32.868Z,32.63
2017-09-21T08:17:59.454Z,32.53
2017-09-21T08:20:26.444Z,32.90
2017-09-21T08:22:53.146Z,31.50
2017-09-21T08:25:19.863Z,31.70
2017-09-21T08:27:46.534Z,31.13
2017-09-21T08:30:13.160Z,31.07
2017-09-21T08:32:39.962Z,30.00
2017-09-21T08:35:06.971Z,27.07
2017-09-21T08:37:37.276Z,30.60
2017-09-21T08:40:04.018Z,30.67
2017-09-21T08:42:30.959Z,27.47
2017-09-21T08:44:57.841Z,27.77
2017-09-21T08:47:24.561Z,30.40
2017-09-21T08:49:51.206Z,25.73
2017-09-21T08:52:18.055Z,29.33
2017-09-21T08:54:44.753Z,28.60
2017-09-21T08:57:11.545Z,27.07
2017-09-21T08:59:38.183Z,28.87
2017-09-21T09:02:04.929Z,26.00
2017-09-21T09:04:31.664Z,27.43
2017-09-21T09:06:58.813Z,26.17
2017-09-21T09:09:25.392Z,26.30
2017-09-21T09:11:52.144Z,25.67
2017-09-21T09:14:18.815Z,27.10
2017-09-21T09:16:45.745Z,27.37
2017-09-21T09:19:12.500Z,27.50
2017-09-21T09:21:39.347Z,26.80
2017-09-21T09:24:05.905Z,25.37
2017-09-21T09:26:32.629Z,24.63
2017-09-21T09:28:59.297Z,24.43
2017-09-21T09:31:25.969Z,24.07
2017-09-21T09:33:52.821Z,24.27
2017-09-21T09:36:20.749Z,24.13
2017-09-21T09:38:47.532Z,21.33
2017-09-21T09:41:14.301Z,20.20
2017-09-21T09:43:41.832Z,21.30
2017-09-21T09:46:08.415Z,20.53
2017-09-21T09:48:35.177Z,21.87
2017-09-21T09:51:01.842Z,19.73
2017-09-21T09:53:28.902Z,18.60
2017-09-21T09:55:55.945Z,19.60
2017-09-21T09:58:22.784Z,17.50
2017-09-21T10:00:49.704Z,18.20
2017-09-21T10:03:16.417Z,17.53
2017-09-21T10:05:43.416Z,17.83
2017-09-21T10:08:10.251Z,19.70
2017-09-21T10:10:37.170Z,15.27
2017-09-21T10:13:03.822Z,14.87
2017-09-21T10:15:30.968Z,17.30
2017-09-21T10:17:58.005Z,14.93
2017-09-21T10:20:24.941Z,15.63
2017-09-21T10:22:51.932Z,14.87
2017-09-21T10:25:19.350Z,15.10
2017-09-21T10:27:46.603Z,11.33
2017-09-21T10:30:13.475Z,12.43
2017-09-21T10:32:40.374Z,12.13
2017-09-21T10:35:07.328Z,12.30
2017-09-21T10:37:34.363Z,12.63
2017-09-21T10:40:01.251Z,12.40
2017-09-21T10:42:28.245Z,13.57
2017-09-21T10:44:55.271Z,13.10
2017-09-21T10:47:24.052Z,12.20
2017-09-21T10:49:51.169Z,13.20
2017-09-21T10:52:20.322Z,12.63
2017-09-21T10:54:47.572Z,12.67
2017-09-21T10:57:14.449Z,12.27
2017-09-21T10:59:41.178Z,11.73
2017-09-21T11:02:08.046Z,10.53
2017-09-21T11:04:34.802Z,11.40
2017-09-21T11:07:01.629Z,9.70
2017-09-21T11:09:28.367Z,9.70
2017-09-21T11:11:55.088Z,9.40
2017-09-21T11:14:23.448Z,10.60
2017-09-21T11:16:50.239Z,8.87
2017-09-21T11:19:16.928Z,8.50
2017-09-21T11:21:43.806Z,7.50
2017-09-21T11:24:10.786Z,7.13
2017-09-21T11:26:37.355Z,6.93
2017-09-21T11:29:04.099Z,7.07
2017-09-21T11:31:30.938Z,7.00
2017-09-21T11:33:57.810Z,5.50
2017-09-21T11:36:24.443Z,5.80
2017-09-21T11:38:51.326Z,5.30
2017-09-21T11:41:20.773Z,5.43
2017-09-21T11:43:49.665Z,5.67
2017-09-21T11:48:50.884Z,6.10
2017-09-21T11:51:17.869Z,6.57
2017-09-21T11:53:45.487Z,5.20
2017-09-21T11:56:12.271Z,5.10
2017-09-21T11:58:39.232Z,5.43
2017-09-21T12:01:06.080Z,4.40
2017-09-21T12:03:32.993Z,4.93
2017-09-21T12:05:59.817Z,3.53
2017-09-21T12:08:26.649Z,3.87
2017-09-21T12:10:53.528Z,3.80
2017-09-21T12:13:20.315Z,3.93
2017-09-21T12:15:46.963Z,3.70
2017-09-21T12:18:13.864Z,3.80
2017-09-21T12:20:40.739Z,3.30
2017-09-21T12:23:08.495Z,3.80
2017-09-21T12:25:35.249Z,4.07
2017-09-21T12:28:02.145Z,4.13
2017-09-21T12:30:28.710Z,3.53
2017-09-21T12:32:55.511Z,4.40
2017-09-21T12:35:22.333Z,4.63
2017-09-21T12:37:49.117Z,4.23
2017-09-21T12:40:15.965Z,4.20
2017-09-21T12:42:42.895Z,3.60
2017-09-21T12:45:09.615Z,3.50
2017-09-21T12:47:36.354Z,3.30
2017-09-21T12:50:03.065Z,4.50
2017-09-21T12:52:29.764Z,4.83
2017-09-21T12:54:56.862Z,4.90
2017-09-21T12:57:23.727Z,4.43
2017-09-21T12:59:50.340Z,4.70
2017-09-21T13:02:17.275Z,5.00
2017-09-21T13:04:45.011Z,5.00
2017-09-21T13:07:11.734Z,5.20
2017-09-21T13:09:38.531Z,5.20
2017-09-21T13:12:05.193Z,5.30
2017-09-21T13:14:32.003Z,4.17
2017-09-21T13:16:58.891Z,4.77
2017-09-21T13:19:25.862Z,4.97
2017-09-21T13:21:52.844Z,4.53
2017-09-21T13:24:20.531Z,5.07
2017-09-21T13:26:47.538Z,3.90
2017-09-21T13:29:14.700Z,4.00
2017-09-21T13:31:42.143Z,3.53
2017-09-21T13:34:08.993Z,3.53
2017-09-21T13:36:35.683Z,4.70
2017-09-21T13:39:03.392Z,4.67
2017-09-21T13:41:30.563Z,3.60
2017-09-21T13:43:57.202Z,3.53
2017-09-21T13:46:23.971Z,5.70
2017-09-21T13:48:54.918Z,3.70
2017-09-21T13:51:21.664Z,3.10
2017-09-21T13:53:48.364Z,3.70
2017-09-21T13:56:15.451Z,2.90
2017-09-21T13:58:42.172Z,3.10
2017-09-21T14:01:09.062Z,2.40
2017-09-21T14:03:35.655Z,2.77
2017-09-21T14:06:02.365Z,3.00
2017-09-21T14:08:29.022Z,3.13
2017-09-21T14:10:56.547Z,2.80
2017-09-21T14:13:23.517Z,3.00
2017-09-21T14:15:51.102Z,3.37
2017-09-21T14:18:18.622Z,3.20
2017-09-21T14:20:45.393Z,3.80
2017-09-21T14:23:12.901Z,4.00
2017-09-21T14:25:39.793Z,3.77
2017-09-21T14:28:06.432Z,3.40
2017-09-21T14:30:33.249Z,3.83
2017-09-21T14:33:00.571Z,3.93
2017-09-21T14:35:27.262Z,4.63
2017-09-21T14:37:54.472Z,4.10
2017-09-21T14:40:21.644Z,3.93
2017-09-21T14:42:48.862Z,4.50
2017-09-21T14:45:15.605Z,4.57
2017-09-21T14:47:42.451Z,4.90
2017-09-21T14:50:09.148Z,5.17
2017-09-21T14:52:35.963Z,5.67
2017-09-21T14:55:03.639Z,7.60
2017-09-21T14:57:30.481Z,7.53
2017-09-21T14:59:57.920Z,8.60
2017-09-21T15:02:24.747Z,9.07
2017-09-21T15:04:51.574Z,8.70
2017-09-21T15:07:19.258Z,8.37
2017-09-21T15:09:46.012Z,7.87
2017-09-21T15:12:12.884Z,9.00
2017-09-21T15:14:39.690Z,9.93
2017-09-21T15:17:06.500Z,10.20
2017-09-21T15:19:33.308Z,8.77
2017-09-21T15:21:59.913Z,8.87
2017-09-21T15:24:26.838Z,9.37
2017-09-21T15:26:53.581Z,10.00
2017-09-21T15:29:20.564Z,11.33
2017-09-21T15:31:47.435Z,12.63
2017-09-21T15:34:14.284Z,12.33
2017-09-21T15:36:41.181Z,12.10
2017-09-21T15:39:08.079Z,12.30
2017-09-21T15:41:34.941Z,13.60
2017-09-21T15:44:01.752Z,12.90
2017-09-21T15:46:28.522Z,12.97
2017-09-21T15:48:55.290Z,13.40
2017-09-21T15:51:22.193Z,14.13
2017-09-21T15:53:49.113Z,11.83
2017-09-21T15:56:16.233Z,13.00
2017-09-21T15:58:43.045Z,11.80
2017-09-21T16:01:09.927Z,11.93
2017-09-21T16:03:36.673Z,10.80
2017-09-21T16:06:03.336Z,10.00
2017-09-21T16:08:30.124Z,10.10
2017-09-21T16:10:57.073Z,10.80
2017-09-21T16:13:23.645Z,8.97
2017-09-21T16:15:50.595Z,10.50
2017-09-21T16:18:17.408Z,9.37
2017-09-21T16:20:44.044Z,9.67
2017-09-21T16:23:10.822Z,9.00
2017-09-21T16:25:37.734Z,10.60
2017-09-21T16:28:04.471Z,8.67
2017-09-21T16:30:31.378Z,10.23
2017-09-21T16:32:58.052Z,9.60
2017-09-21T16:35:24.874Z,9.90
2017-09-21T16:37:51.748Z,13.83
2017-09-21T16:40:18.514Z,12.20
2017-09-21T16:42:45.227Z,11.40
2017-09-21T16:45:12.341Z,11.47
2017-09-21T16:47:39.049Z,11.90
2017-09-21T16:50:05.726Z,11.30
2017-09-21T16:52:32.466Z,12.03
2017-09-21T16:54:59.244Z,11.50
2017-09-21T16:57:26.305Z,11.10
2017-09-21T16:59:53.065Z,11.80
2017-09-21T17:02:19.817Z,12.00
2017-09-21T17:04:46.568Z,11.20
2017-09-21T17:07:14.238Z,11.70
2017-09-21T17:09:41.212Z,12.67
2017-09-21T17:12:07.884Z,12.60
2017-09-21T17:14:35.409Z,11.03
2017-09-21T17:17:02.275Z,11.53
2017-09-21T17:19:29.128Z,12.13
2017-09-21T17:21:55.785Z,12.60
2017-09-21T17:24:22.463Z,11.80
2017-09-21T17:26:49.238Z,11.13
2017-09-21T17:29:15.896Z,11.93
2017-09-21T17:31:42.522Z,12.30
2017-09-21T17:34:09.424Z,11.77
2017-09-21T17:36:36.367Z,11.90
2017-09-21T17:39:03.012Z,12.23
2017-09-21T17:41:29.619Z,12.10
2017-09-21T17:43:56.651Z,13.20
2017-09-21T17:46:23.915Z,14.03
2017-09-21T17:48:50.691Z,14.13
2017-09-21T17:51:17.515Z,14.17
2017-09-21T17:53:44.384Z,14.40
2017-09-21T17:56:11.353Z,14.90
2017-09-21T17:58:38.089Z,16.37
2017-09-21T18:01:04.664Z,15.27
2017-09-21T18:03:31.500Z,13.43
2017-09-21T18:05:58.331Z,14.40
2017-09-21T18:08:25.211Z,14.40
2017-09-21T18:10:51.996Z,15.97
2017-09-21T18:13:18.880Z,15.33
2017-09-21T18:15:45.718Z,15.70
2017-09-21T18:18:12.489Z,17.50
2017-09-21T18:20:39.496Z,18.53
2017-09-21T18:23:07.133Z,18.80
2017-09-21T18:25:34.704Z,19.57
2017-09-21T18:28:01.876Z,19.63
2017-09-21T18:30:29.194Z,22.77
2017-09-21T18:32:56.968Z,22.83
2017-09-21T18:35:23.842Z,25.87
2017-09-21T18:37:51.051Z,25.30
2017-09-21T18:40:18.518Z,25.10
2017-09-21T18:42:45.876Z,25.37
2017-09-21T18:45:12.836Z,24.67
2017-09-21T18:47:39.890Z,25.50
2017-09-21T18:50:06.892Z,26.47
2017-09-21T18:52:33.912Z,27.60
2017-09-21T18:55:00.749Z,27.53
2017-09-21T18:57:27.727Z,34.50
2017-09-21T18:59:54.950Z,33.90
2017-09-21T19:02:21.806Z,35.83
2017-09-21T19:04:48.706Z,39.13
2017-09-21T19:07:16.443Z,35.70
2017-09-21T19:09:43.516Z,39.40
2017-09-21T19:12:10.833Z,43.20
2017-09-21T19:14:37.529Z,39.47
2017-09-21T19:17:05.556Z,39.50
2017-09-21T19:19:32.620Z,36.70
2017-09-21T19:21:59.539Z,42.83
2017-09-21T19:24:26.387Z,42.90
2017-09-21T19:26:54.662Z,46.83
2017-09-21T19:29:21.827Z,41.23
2017-09-21T19:31:48.833Z,48.50
2017-09-21T19:34:16.428Z,55.40
2017-09-21T19:36:43.360Z,57.60
2017-09-21T19:39:11.232Z,57.57
2017-09-21T19:41:38.364Z,56.70
2017-09-21T19:44:05.570Z,60.20
2017-09-21T19:46:32.305Z,65.20
2017-09-21T19:48:59.428Z,68.80
2017-09-21T19:51:26.622Z,73.30
2017-09-21T19:53:54.045Z,70.97
2017-09-21T19:56:20.835Z,76.47
2017-09-21T19:58:47.887Z,75.73
2017-09-21T20:01:16.020Z,69.33
2017-09-21T20:03:43.002Z,68.47
2017-09-21T20:06:10.127Z,66.30
2017-09-21T20:08:37.156Z,73.03
2017-09-21T20:11:04.601Z,74.27
2017-09-21T20:13:31.346Z,84.47
2017-09-21T20:15:59.019Z,77.63
2017-09-21T20:18:26.072Z,85.10
2017-09-21T20:20:53.574Z,88.53
2017-09-21T20:23:20.884Z,95.00
2017-09-21T20:25:47.553Z,93.37
2017-09-21T20:28:14.420Z,82.67
2017-09-21T20:30:41.120Z,91.90
2017-09-21T20:33:08.178Z,84.17
2017-09-21T20:35:34.911Z,81.13
2017-09-21T20:38:02.452Z,85.53
2017-09-21T20:40:29.273Z,92.60
2017-09-21T20:42:55.928Z,89.03
2017-09-21T20:45:22.757Z,89.27
2017-09-21T20:47:50.536Z,77.43
2017-09-21T20:50:18.495Z,76.40
2017-09-21T20:52:45.153Z,72.77
2017-09-21T20:55:11.814Z,81.20
2017-09-21T20:57:38.908Z,85.93
2017-09-21T21:00:06.269Z,94.53
2017-09-21T21:02:33.156Z,100.60
2017-09-21T21:04:59.789Z,104.47
2017-09-21T21:07:26.350Z,94.17
2017-09-21T21:09:53.144Z,98.70
2017-09-21T21:12:20.067Z,89.83
2017-09-21T21:14:47.407Z,86.00
2017-09-21T21:17:14.824Z,89.00
2017-09-21T21:19:42.851Z,88.90
2017-09-21T21:22:11.228Z,90.43
2017-09-21T21:24:38.781Z,86.40
2017-09-21T21:27:05.640Z,80.53
2017-09-21T21:29:33.168Z,91.87
2017-09-21T21:32:00.490Z,90.30
2017-09-21T21:34:27.411Z,80.67
2017-09-21T21:36:54.151Z,78.07
2017-09-21T21:39:21.378Z,82.17
2017-09-21T21:41:48.387Z,74.67
2017-09-21T21:44:15.671Z,78.27
2017-09-21T21:46:42.697Z,72.73
2017-09-21T21:49:10.094Z,75.37
2017-09-21T21:51:37.068Z,77.93
2017-09-21T21:54:03.743Z,81.17
2017-09-21T21:56:30.608Z,78.20
2017-09-21T21:58:57.603Z,69.07
2017-09-21T22:01:25.140Z,66.90
2017-09-21T22:03:52.676Z,74.00
2017-09-21T22:06:19.376Z,87.20
2017-09-21T22:08:46.320Z,82.97
2017-09-21T22:11:13.253Z,91.23
2017-09-21T22:13:40.962Z,94.47
2017-09-21T22:16:07.878Z,76.70
2017-09-21T22:18:35.618Z,83.70
2017-09-21T22:21:02.954Z,83.07
2017-09-21T22:23:29.906Z,86.07
2017-09-21T22:25:56.553Z,76.80
2017-09-21T22:28:24.027Z,75.27
2017-09-21T22:30:51.160Z,68.63
2017-09-21T22:33:19.083Z,70.40
2017-09-21T22:35:46.706Z,70.70
2017-09-21T22:38:14.632Z,81.27
2017-09-21T22:40:41.907Z,88.17
2017-09-21T22:43:08.861Z,89.40
2017-09-21T22:45:36.397Z,72.93
2017-09-21T22:48:04.475Z,76.87
2017-09-21T22:50:32.077Z,76.47
2017-09-21T22:53:04.102Z,76.97
2017-09-21T22:55:30.799Z,70.03
2017-09-21T22:57:57.525Z,80.37
2017-09-21T23:00:24.621Z,70.10
2017-09-21T23:02:51.765Z,70.83
2017-09-21T23:05:18.770Z,69.30
2017-09-21T23:07:45.580Z,73.03
2017-09-21T23:10:12.185Z,73.07
2017-09-21T23:12:39.080Z,76.43
2017-09-21T23:15:05.717Z,83.53
2017-09-21T23:17:32.932Z,96.50
2017-09-21T23:20:00.782Z,93.60
2017-09-21T23:22:31.559Z,91.57
2017-09-21T23:24:58.377Z,81.23
2017-09-21T23:27:25.080Z,74.17
2017-09-21T23:29:51.900Z,87.47
2017-09-21T23:32:18.584Z,84.27
2017-09-21T23:34:45.392Z,86.67
2017-09-21T23:37:12.145Z,84.17
2017-09-21T23:39:38.694Z,93.40
2017-09-21T23:42:05.377Z,88.60
2017-09-21T23:44:32.083Z,98.07
2017-09-21T23:46:58.753Z,108.23
2017-09-21T23:49:25.390Z,86.30
2017-09-21T23:51:52.216Z,79.90
2017-09-21T23:54:19.141Z,80.47
2017-09-21T23:56:45.799Z,99.90
2017-09-21T23:59:12.583Z,89.30
